createdAt,value
2022-11-07T05:28:05.633Z,52.54
2022-11-07T05:30:32.315Z,53.00
2022-11-07T05:32:58.721Z,51.14
2022-11-07T05:35:25.169Z,52.14
2022-11-07T05:37:51.601Z,52.14
2022-11-07T05:40:18.029Z,52.34
2022-11-07T05:42:44.437Z,52.54
2022-11-07T05:45:11.061Z,52.41
2022-11-07T05:47:37.413Z,50.61
2022-11-07T05:50:04.001Z,52.02
2022-11-07T05:52:31.453Z,52.10
2022-11-07T05:54:57.883Z,52.21
2022-11-07T05:57:24.381Z,52.23
2022-11-07T05:59:50.913Z,52.17
2022-11-07T06:02:17.497Z,52.62
2022-11-07T06:04:44.150Z,51.60
2022-11-07T06:07:10.595Z,52.54
2022-11-07T06:09:37.025Z,52.91
2022-11-07T06:12:03.974Z,52.92
2022-11-07T06:14:30.457Z,53.08
2022-11-07T06:16:56.898Z,53.13
2022-11-07T06:19:23.368Z,53.23
2022-11-07T06:21:49.801Z,52.89
2022-11-07T06:24:16.207Z,53.00
2022-11-07T06:26:42.653Z,54.30
2022-11-07T06:29:09.154Z,53.62
2022-11-07T06:31:35.650Z,53.70
2022-11-07T06:34:02.080Z,53.47
2022-11-07T06:36:28.534Z,53.66
2022-11-07T06:38:54.973Z,53.48
2022-11-07T06:41:21.578Z,53.82
2022-11-07T06:43:50.814Z,53.54
2022-11-07T06:46:19.304Z,53.86
2022-11-07T06:48:46.344Z,53.74
2022-11-07T06:51:12.854Z,54.05
2022-11-07T06:53:39.362Z,53.90
2022-11-07T06:56:08.216Z,53.80
2022-11-07T06:58:35.051Z,53.94
2022-11-07T07:01:05.812Z,54.02
2022-11-07T07:03:32.406Z,53.89
2022-11-07T07:06:03.317Z,53.78
2022-11-07T07:08:29.913Z,54.22
2022-11-07T07:10:56.334Z,53.77
2022-11-07T07:13:22.809Z,53.79
2022-11-07T07:15:57.118Z,54.18
2022-11-07T07:18:27.273Z,54.19
2022-11-07T07:21:02.251Z,54.34
2022-11-07T07:23:28.674Z,54.39
2022-11-07T07:25:55.219Z,54.57
2022-11-07T07:28:21.772Z,54.32
2022-11-07T07:30:51.941Z,54.21
2022-11-07T07:33:19.399Z,54.17
2022-11-07T07:35:46.151Z,54.16
2022-11-07T07:38:12.504Z,52.65
2022-11-07T07:40:38.988Z,53.81
2022-11-07T07:43:05.424Z,54.23
2022-11-07T07:45:31.905Z,54.63
2022-11-07T07:48:02.582Z,54.11
2022-11-07T07:50:29.066Z,54.24
2022-11-07T07:52:57.387Z,54.39
2022-11-07T07:55:24.617Z,54.21
2022-11-07T07:57:51.366Z,54.03
2022-11-07T08:00:18.346Z,53.70
2022-11-07T08:02:44.785Z,53.78
2022-11-07T08:05:13.353Z,53.65
2022-11-07T08:07:47.838Z,53.25
2022-11-07T08:10:40.436Z,53.75
2022-11-07T08:13:01.425Z,53.33
2022-11-07T08:15:27.864Z,53.87
2022-11-07T08:17:54.325Z,53.10
2022-11-07T08:20:20.910Z,53.23
2022-11-07T08:22:47.359Z,53.19
2022-11-07T08:25:13.821Z,52.97
2022-11-07T08:27:40.302Z,52.72
2022-11-07T08:30:11.537Z,52.68
2022-11-07T08:32:40.274Z,52.59
2022-11-07T08:35:06.858Z,52.75
2022-11-07T08:37:33.294Z,52.31
2022-11-07T08:39:59.847Z,52.53
2022-11-07T08:42:26.223Z,51.58
2022-11-07T08:44:52.675Z,51.86
2022-11-07T08:47:19.138Z,52.01
2022-11-07T08:49:45.571Z,51.98
2022-11-07T08:52:11.975Z,51.96
2022-11-07T08:54:38.662Z,52.19
2022-11-07T08:57:05.007Z,51.33
2022-11-07T08:59:31.427Z,51.82
2022-11-07T09:02:36.913Z,51.84
2022-11-07T09:04:44.372Z,52.04
2022-11-07T09:07:10.920Z,51.62
2022-11-07T09:09:37.334Z,51.48
2022-11-07T09:12:03.945Z,51.60
2022-11-07T09:14:30.386Z,51.46
2022-11-07T09:16:57.898Z,51.62
2022-11-07T09:19:24.337Z,51.40
2022-11-07T09:21:50.751Z,51.10
2022-11-07T09:24:17.196Z,51.30
2022-11-07T09:26:43.678Z,51.18
2022-11-07T09:29:10.115Z,50.78
2022-11-07T09:31:36.555Z,50.56
2022-11-07T09:34:03.015Z,50.37
2022-11-07T09:36:29.487Z,50.47
2022-11-07T09:38:57.254Z,50.43
2022-11-07T09:41:27.215Z,50.57
2022-11-07T09:44:09.908Z,50.33
2022-11-07T09:46:53.036Z,50.22
2022-11-07T09:49:59.650Z,50.55
2022-11-07T09:52:38.765Z,50.29
2022-11-07T09:55:27.659Z,50.40
2022-11-07T09:58:11.964Z,50.39
2022-11-07T10:00:38.503Z,50.23
2022-11-07T10:03:05.412Z,50.45
2022-11-07T10:06:24.354Z,50.57
2022-11-07T10:09:03.459Z,49.97
2022-11-07T10:11:40.580Z,49.81
2022-11-07T10:14:17.152Z,49.98
2022-11-07T10:17:13.396Z,49.68
2022-11-07T10:20:03.185Z,49.43
2022-11-07T10:22:48.029Z,49.09
2022-11-07T10:25:40.740Z,48.62
2022-11-07T10:28:07.168Z,48.60
2022-11-07T10:30:34.221Z,47.66
2022-11-07T10:33:30.136Z,47.96
2022-11-07T10:36:03.103Z,48.22
2022-11-07T10:38:32.285Z,47.82
2022-11-07T10:40:58.813Z,47.71
2022-11-07T10:43:25.130Z,47.95
2022-11-07T10:45:52.936Z,47.96
2022-11-07T10:48:19.695Z,47.77
2022-11-07T10:50:56.640Z,48.44
2022-11-07T10:53:25.669Z,48.20
2022-11-07T10:55:54.510Z,48.29
2022-11-07T10:58:28.549Z,48.11
2022-11-07T11:01:06.981Z,48.53
2022-11-07T11:03:45.353Z,48.11
2022-11-07T11:06:18.527Z,48.41
2022-11-07T11:08:47.169Z,47.99
2022-11-07T11:11:16.268Z,47.90
2022-11-07T11:13:42.734Z,49.07
2022-11-07T11:16:30.560Z,48.57
2022-11-07T11:18:59.610Z,47.96
2022-11-07T11:21:26.169Z,47.76
2022-11-07T11:23:53.114Z,47.90
2022-11-07T11:26:32.334Z,48.09
2022-11-07T11:29:04.254Z,47.82
2022-11-07T11:31:37.095Z,48.17
2022-11-07T11:34:11.255Z,47.76
2022-11-07T11:36:48.658Z,47.95
2022-11-07T11:39:32.914Z,48.72
2022-11-07T11:42:00.422Z,47.81
2022-11-07T11:44:44.326Z,48.08
2022-11-07T11:47:28.123Z,48.07
2022-11-07T11:50:23.451Z,47.79
2022-11-07T11:52:50.846Z,47.68
2022-11-07T11:55:20.575Z,47.67
2022-11-07T11:57:49.999Z,47.84
2022-11-07T12:00:21.292Z,47.78
2022-11-07T12:03:09.645Z,47.94
2022-11-07T12:05:51.142Z,48.26
2022-11-07T12:08:38.236Z,48.01
2022-11-07T12:11:20.254Z,47.78
2022-11-07T12:14:23.126Z,47.83
2022-11-07T12:16:58.343Z,47.41
2022-11-07T12:19:48.531Z,47.42
2022-11-07T12:22:52.835Z,47.82
2022-11-07T12:25:28.907Z,47.61
2022-11-07T12:28:07.703Z,47.29
2022-11-07T12:30:40.832Z,47.83
2022-11-07T12:33:13.178Z,47.11
2022-11-07T12:35:52.672Z,47.20
2022-11-07T12:38:29.210Z,47.21
2022-11-07T12:41:25.266Z,47.08
2022-11-07T12:44:06.612Z,47.15
2022-11-07T12:46:51.084Z,47.15
2022-11-07T12:49:37.400Z,46.94
2022-11-07T12:52:29.121Z,47.13
2022-11-07T12:55:02.248Z,47.18
2022-11-07T12:57:34.295Z,47.13
2022-11-07T13:00:08.260Z,47.38
2022-11-07T13:02:54.721Z,47.86
2022-11-07T13:05:29.720Z,47.58
2022-11-07T13:08:07.469Z,47.42
2022-11-07T13:10:48.853Z,47.51
2022-11-07T13:13:33.880Z,47.49
2022-11-07T13:16:35.976Z,47.64
2022-11-07T13:19:10.405Z,47.69
2022-11-07T13:21:41.525Z,47.92
2022-11-07T13:24:08.249Z,47.61
2022-11-07T13:26:50.108Z,47.60
2022-11-07T13:29:24.596Z,48.02
2022-11-07T13:32:17.485Z,47.81
2022-11-07T13:34:56.812Z,47.67
2022-11-07T13:37:32.404Z,48.06
2022-11-07T13:40:24.282Z,48.16
2022-11-07T13:42:59.033Z,48.00
2022-11-07T13:45:37.982Z,48.19
2022-11-07T13:48:15.006Z,47.93
2022-11-07T13:50:46.517Z,48.27
2022-11-07T13:53:24.781Z,48.19
2022-11-07T13:56:00.253Z,48.19
2022-11-07T13:58:30.003Z,48.77
2022-11-07T14:01:03.710Z,49.10
2022-11-07T14:03:30.377Z,49.58
2022-11-07T14:05:57.207Z,50.24
2022-11-07T14:08:31.344Z,49.76
2022-11-07T14:10:58.953Z,50.43
2022-11-07T14:13:30.362Z,50.24
2022-11-07T14:16:00.497Z,50.75
2022-11-07T14:18:31.898Z,50.98
2022-11-07T14:21:03.037Z,50.80
2022-11-07T14:23:34.473Z,51.29
2022-11-07T14:26:38.835Z,51.04
2022-11-07T14:29:07.958Z,51.95
2022-11-07T14:31:36.900Z,52.12
2022-11-07T14:34:16.254Z,52.24
2022-11-07T14:36:54.353Z,51.65
2022-11-07T14:39:22.755Z,52.59
2022-11-07T14:41:50.814Z,52.79
2022-11-07T14:44:41.951Z,52.02
2022-11-07T14:47:20.903Z,52.68
2022-11-07T14:49:50.220Z,53.13
2022-11-07T14:52:21.783Z,52.89
2022-11-07T14:54:54.607Z,53.18
2022-11-07T14:57:21.736Z,53.86
2022-11-07T14:59:48.222Z,53.34
2022-11-07T15:02:27.247Z,52.55
2022-11-07T15:05:00.124Z,53.28
2022-11-07T15:07:33.898Z,53.11
2022-11-07T15:10:13.586Z,52.73
2022-11-07T15:12:51.594Z,52.66
2022-11-07T15:15:44.656Z,52.21
2022-11-07T15:18:26.634Z,52.97
2022-11-07T15:21:00.813Z,53.39
2022-11-07T15:23:32.873Z,53.24
2022-11-07T15:26:10.799Z,53.22
2022-11-07T15:28:46.546Z,53.10
2022-11-07T15:31:28.671Z,53.07
2022-11-07T15:33:57.513Z,53.62
2022-11-07T15:36:25.151Z,53.40
2022-11-07T15:38:52.636Z,53.17
2022-11-07T15:41:19.473Z,53.31
2022-11-07T15:43:45.951Z,53.16
2022-11-07T15:46:25.726Z,52.75
2022-11-07T15:48:52.875Z,53.08
2022-11-07T15:51:19.319Z,53.00
2022-11-07T15:53:45.821Z,53.11
2022-11-07T15:56:16.118Z,52.53
2022-11-07T15:58:42.989Z,52.72
2022-11-07T16:01:09.958Z,52.85
2022-11-07T16:03:36.532Z,52.75
2022-11-07T16:06:07.292Z,52.81
2022-11-07T16:08:34.695Z,52.89
2022-11-07T16:11:02.378Z,52.64
2022-11-07T16:13:29.181Z,52.87
2022-11-07T16:15:59.490Z,52.75
2022-11-07T16:18:26.445Z,52.19
2022-11-07T16:20:53.152Z,52.08
2022-11-07T16:23:19.729Z,51.94
2022-11-07T16:25:48.065Z,50.94
2022-11-07T16:28:28.702Z,51.94
2022-11-07T16:30:56.097Z,51.91
2022-11-07T16:33:23.095Z,51.79
2022-11-07T16:35:51.727Z,52.18
2022-11-07T16:38:20.389Z,51.81
2022-11-07T16:40:47.365Z,51.99
2022-11-07T16:43:14.326Z,52.15
2022-11-07T16:45:46.356Z,51.75
2022-11-07T16:48:21.308Z,51.85
2022-11-07T16:50:47.807Z,51.74
2022-11-07T16:53:15.420Z,51.98
2022-11-07T16:55:48.260Z,52.17
2022-11-07T16:58:26.414Z,51.67
2022-11-07T17:00:55.038Z,51.79
2022-11-07T17:03:21.526Z,51.79
2022-11-07T17:05:48.267Z,52.01
2022-11-07T17:08:32.675Z,51.88
2022-11-07T17:10:59.094Z,52.09
2022-11-07T17:13:25.549Z,52.22
2022-11-07T17:15:52.450Z,51.84
2022-11-07T17:18:23.737Z,52.20
2022-11-07T17:20:52.634Z,51.89
2022-11-07T17:23:24.003Z,51.98
2022-11-07T17:25:55.338Z,51.99
2022-11-07T17:28:22.444Z,51.62
2022-11-07T17:30:48.894Z,52.11
2022-11-07T17:33:15.449Z,52.18
2022-11-07T17:35:41.881Z,51.10
2022-11-07T17:38:16.621Z,51.61
2022-11-07T17:40:43.464Z,51.78
2022-11-07T17:43:09.941Z,51.77
2022-11-07T17:45:37.523Z,51.92
2022-11-07T17:48:04.211Z,52.09
2022-11-07T17:50:30.757Z,51.97
2022-11-07T17:52:57.155Z,50.93
2022-11-07T17:55:24.671Z,52.06
2022-11-07T17:57:51.280Z,51.80
2022-11-07T18:00:19.310Z,50.68
2022-11-07T18:02:48.122Z,51.71
2022-11-07T18:05:16.983Z,51.84
2022-11-07T18:07:44.458Z,52.14
2022-11-07T18:10:15.531Z,51.86
2022-11-07T18:12:42.352Z,52.40
2022-11-07T18:15:12.038Z,52.01
2022-11-07T18:17:40.020Z,52.38
2022-11-07T18:20:07.794Z,52.31
2022-11-07T18:22:34.914Z,52.11
2022-11-07T18:25:01.433Z,52.10
2022-11-07T18:27:28.035Z,52.38
2022-11-07T18:29:54.389Z,51.00
2022-11-07T18:32:20.826Z,52.19
2022-11-07T18:34:47.341Z,52.12
2022-11-07T18:37:13.843Z,52.23
2022-11-07T18:39:40.483Z,52.35
2022-11-07T18:42:07.078Z,51.20
2022-11-07T18:44:33.587Z,52.45
2022-11-07T18:47:00.046Z,52.68
2022-11-07T18:49:26.635Z,52.60
2022-11-07T18:51:53.079Z,52.42
2022-11-07T18:54:22.106Z,52.67
2022-11-07T18:56:48.729Z,52.89
2022-11-07T18:59:15.116Z,51.83
2022-11-07T19:01:41.656Z,52.75
2022-11-07T19:04:10.324Z,51.46
2022-11-07T19:06:36.828Z,52.47
2022-11-07T19:09:03.727Z,52.63
2022-11-07T19:11:31.285Z,52.67
2022-11-07T19:14:01.721Z,52.64
2022-11-07T19:16:28.900Z,52.78
2022-11-07T19:18:55.369Z,53.19
2022-11-07T19:21:23.486Z,52.79
2022-11-07T19:23:51.319Z,52.71
2022-11-07T19:26:19.202Z,53.06
2022-11-07T19:28:46.457Z,52.69
2022-11-07T19:31:13.577Z,52.63
2022-11-07T19:33:41.762Z,52.71
2022-11-07T19:36:13.914Z,52.93
2022-11-07T19:38:41.077Z,53.10
2022-11-07T19:41:08.661Z,53.02
2022-11-07T19:43:35.151Z,52.72
2022-11-07T19:46:14.873Z,52.50
2022-11-07T19:48:41.513Z,52.84
2022-11-07T19:51:09.135Z,51.69
2022-11-07T19:53:35.585Z,52.83
2022-11-07T19:56:10.294Z,52.49
2022-11-07T19:58:38.077Z,52.83
2022-11-07T20:01:12.946Z,52.64
2022-11-07T20:03:42.446Z,52.80
2022-11-07T20:06:13.846Z,52.93
2022-11-07T20:08:41.045Z,52.89
2022-11-07T20:11:07.706Z,52.96
2022-11-07T20:13:34.378Z,53.03
2022-11-07T20:16:01.127Z,52.98
2022-11-07T20:18:27.666Z,52.81
2022-11-07T20:21:02.053Z,52.79
2022-11-07T20:23:28.562Z,52.85
2022-11-07T20:25:55.070Z,52.66
2022-11-07T20:28:21.687Z,52.61
2022-11-07T20:30:48.058Z,51.44
2022-11-07T20:33:14.664Z,52.61
2022-11-07T20:35:41.256Z,52.92
2022-11-07T20:38:07.692Z,53.02
2022-11-07T20:40:34.192Z,53.01
2022-11-07T20:43:01.815Z,53.01
2022-11-07T20:45:28.284Z,53.02
2022-11-07T20:47:54.946Z,53.02
2022-11-07T20:50:21.316Z,51.77
2022-11-07T20:52:47.802Z,52.74
2022-11-07T20:55:14.304Z,53.03
2022-11-07T20:57:40.785Z,52.93
2022-11-07T21:00:08.211Z,52.79
2022-11-07T21:02:34.621Z,52.74
2022-11-07T21:05:18.092Z,53.15
2022-11-07T21:07:44.834Z,53.07
2022-11-07T21:10:11.412Z,52.98
2022-11-07T21:12:37.864Z,53.08
2022-11-07T21:15:04.777Z,53.25
2022-11-07T21:17:34.740Z,53.40
2022-11-07T21:20:01.366Z,53.48
2022-11-07T21:22:29.527Z,52.05
2022-11-07T21:24:56.749Z,53.10
2022-11-07T21:27:23.380Z,53.15
2022-11-07T21:29:49.801Z,52.06
2022-11-07T21:32:16.364Z,53.14
2022-11-07T21:34:42.879Z,52.04
2022-11-07T21:37:09.806Z,53.06
2022-11-07T21:39:36.484Z,53.42
2022-11-07T21:42:04.437Z,52.08
2022-11-07T21:44:30.930Z,53.08
2022-11-07T21:46:57.430Z,53.33
2022-11-07T21:49:24.058Z,53.65
2022-11-07T21:51:50.624Z,52.19
2022-11-07T21:54:17.853Z,53.40
2022-11-07T21:56:44.490Z,53.07
2022-11-07T21:59:12.051Z,52.28
2022-11-07T22:01:39.848Z,53.23
2022-11-07T22:04:11.310Z,53.40
2022-11-07T22:06:40.460Z,53.31
2022-11-07T22:09:08.865Z,53.25
2022-11-07T22:11:35.342Z,53.47
2022-11-07T22:14:02.453Z,53.23
2022-11-07T22:16:29.009Z,53.74
2022-11-07T22:18:55.551Z,52.08
2022-11-07T22:21:23.689Z,53.40
2022-11-07T22:23:50.631Z,53.56
2022-11-07T22:26:21.613Z,53.52
2022-11-07T22:28:48.982Z,53.47
2022-11-07T22:31:18.486Z,53.56
2022-11-07T22:33:44.979Z,53.61
2022-11-07T22:36:12.488Z,53.55
2022-11-07T22:38:40.126Z,53.68
2022-11-07T22:41:08.803Z,53.49
2022-11-07T22:43:35.486Z,53.42
2022-11-07T22:46:06.905Z,53.60
2022-11-07T22:48:34.036Z,53.61
2022-11-07T22:51:04.301Z,53.76
2022-11-07T22:53:30.804Z,53.54
